Time;durP1;ratioP1;P1;durP2;ratioP2;P2;SDS_P1;SDS_P2;PMS_P1;PMS_P2;Temp;Humidity;BMP_temperature;BMP_pressure;BME280_temperature;BME280_humidity;BME280_pressure;Samples;Min_cycle;Max_cycle;Signal;HPM_P1;HPM_P2
2023/05/04 00:01:40;;;;;;;20.40;14.30;;;;;;;12.43;100.00;95032.22;5055595;28;20446;-80
2023/05/04 00:04:07;;;;;;;17.90;15.63;;;;;;;12.46;100.00;95026.72;5055307;28;20485;-81
2023/05/04 00:06:34;;;;;;;17.73;14.40;;;;;;;12.47;100.00;95023.94;5055341;28;20481;-80
2023/05/04 00:09:00;;;;;;;19.03;16.10;;;;;;;12.34;100.00;95023.38;5055128;28;20511;-80
2023/05/04 00:11:27;;;;;;;21.80;15.53;;;;;;;12.21;100.00;95021.00;5054933;28;20442;-80
2023/05/04 00:13:54;;;;;;;20.60;14.63;;;;;;;12.23;100.00;95021.69;5055193;28;20471;-80
2023/05/04 00:16:22;;;;;;;19.10;14.50;;;;;;;12.03;100.00;95025.25;5054981;28;21050;-79
2023/05/04 00:18:49;;;;;;;20.00;15.53;;;;;;;11.99;100.00;95015.97;5054929;28;20437;-80
2023/05/04 00:21:15;;;;;;;21.63;16.03;;;;;;;11.95;100.00;95023.31;5054921;28;20447;-80
2023/05/04 00:23:42;;;;;;;27.33;17.03;;;;;;;12.01;100.00;95017.50;5054885;28;20446;-80
2023/05/04 00:26:10;;;;;;;22.10;17.67;;;;;;;12.04;100.00;95019.88;5054808;28;20445;-80
2023/05/04 00:28:36;;;;;;;21.67;15.90;;;;;;;11.95;100.00;95022.47;5054967;28;20453;-80
2023/05/04 00:31:03;;;;;;;21.67;17.60;;;;;;;11.93;100.00;95025.25;5055036;28;20452;-79
2023/05/04 00:33:31;;;;;;;20.03;16.93;;;;;;;11.82;100.00;95027.13;5055052;28;20442;-80
2023/05/04 00:35:58;;;;;;;26.17;17.93;;;;;;;11.79;100.00;95023.81;5054784;28;20441;-80
2023/05/04 00:38:25;;;;;;;20.83;16.53;;;;;;;11.74;100.00;95028.63;5054731;28;20441;-80
2023/05/04 00:40:52;;;;;;;28.20;18.67;;;;;;;11.81;100.00;95021.06;5054437;28;20452;-80
2023/05/04 00:43:18;;;;;;;24.30;18.30;;;;;;;11.77;100.00;95028.34;5054680;28;20502;-80
2023/05/04 00:45:45;;;;;;;27.00;17.63;;;;;;;11.75;100.00;95016.31;5054648;28;20474;-80
2023/05/04 00:48:12;;;;;;;23.63;17.30;;;;;;;11.69;100.00;95036.06;5054858;28;20426;-80
2023/05/04 00:50:40;;;;;;;24.90;17.17;;;;;;;11.67;100.00;95040.63;5054727;28;20499;-80
2023/05/04 00:53:10;;;;;;;23.30;17.07;;;;;;;11.60;100.00;95036.88;5054218;28;20450;-80
2023/05/04 00:55:39;;;;;;;22.80;16.87;;;;;;;11.59;100.00;95037.84;5054449;28;20449;-80
2023/05/04 00:58:06;;;;;;;24.67;17.27;;;;;;;11.54;100.00;95026.88;5054363;28;20521;-80
2023/05/04 01:00:33;;;;;;;24.77;18.30;;;;;;;11.44;100.00;95026.84;5054222;28;21234;-80
2023/05/04 01:03:00;;;;;;;25.40;17.10;;;;;;;11.36;100.00;95036.34;5053246;28;20460;-79
2023/05/04 01:05:35;;;;;;;19.10;14.50;;;;;;;11.33;100.00;95028.75;5054202;28;20445;-80
2023/05/04 01:08:07;;;;;;;28.37;17.07;;;;;;;11.23;100.00;95025.22;5068354;28;20447;-81
2023/05/04 01:10:43;;;;;;;23.70;17.23;;;;;;;11.21;100.00;95019.25;5054129;28;20503;-80
2023/05/04 01:13:12;;;;;;;21.60;16.37;;;;;;;11.18;100.00;95022.97;5053906;28;20445;-80
2023/05/04 01:15:39;;;;;;;26.27;17.47;;;;;;;11.17;100.00;95022.16;5053841;28;20500;-80
2023/05/04 01:18:06;;;;;;;28.00;18.30;;;;;;;11.15;100.00;95024.09;5053964;28;20550;-80
2023/05/04 01:20:33;;;;;;;26.90;19.07;;;;;;;11.05;100.00;95022.38;5054372;28;20442;-80
2023/05/04 01:23:02;;;;;;;23.50;18.20;;;;;;;11.17;100.00;95019.53;5053981;28;20499;-80
2023/05/04 01:25:33;;;;;;;23.73;18.00;;;;;;;11.33;100.00;95021.69;5035338;28;20441;-80
2023/05/04 01:28:08;;;;;;;21.93;16.97;;;;;;;11.51;100.00;95013.16;5053729;28;20528;-80
2023/05/04 01:30:39;;;;;;;26.60;19.43;;;;;;;11.50;100.00;95001.84;5053926;28;20553;-80
2023/05/04 01:33:06;;;;;;;23.93;18.20;;;;;;;11.47;100.00;95002.94;5053986;28;20476;-80
2023/05/04 01:35:34;;;;;;;25.70;19.43;;;;;;;11.58;100.00;95001.19;5053811;28;20796;-80
2023/05/04 01:38:03;;;;;;;24.80;18.47;;;;;;;11.77;100.00;94996.78;5053633;28;20496;-80
2023/05/04 01:40:29;;;;;;;24.17;16.80;;;;;;;11.79;100.00;94996.69;5053273;28;20833;-80
2023/05/04 01:42:56;;;;;;;27.60;17.00;;;;;;;11.78;100.00;94995.88;5053701;28;20506;-80
2023/05/04 01:45:23;;;;;;;24.13;17.77;;;;;;;11.74;100.00;94999.69;5053575;28;21009;-80
2023/05/04 01:47:50;;;;;;;21.30;16.77;;;;;;;11.77;100.00;94991.53;5053266;28;20817;-80
2023/05/04 01:50:17;;;;;;;24.47;16.83;;;;;;;11.77;100.00;94994.16;5053655;28;20441;-79
2023/05/04 01:52:44;;;;;;;22.20;16.83;;;;;;;11.81;100.00;94994.75;5052823;28;20460;-80
2023/05/04 01:55:12;;;;;;;21.97;16.60;;;;;;;11.68;100.00;94994.97;5054542;28;20449;-80
2023/05/04 01:57:39;;;;;;;21.60;14.77;;;;;;;11.72;100.00;95004.25;5053295;28;20539;-80
2023/05/04 02:00:07;;;;;;;19.47;16.50;;;;;;;11.73;100.00;94997.22;5053986;28;20844;-80
2023/05/04 02:02:33;;;;;;;24.70;16.27;;;;;;;11.61;100.00;94996.50;5054264;28;20457;-80
2023/05/04 02:05:00;;;;;;;20.10;12.57;;;;;;;11.41;100.00;94997.38;5053707;28;20445;-80
2023/05/04 02:07:27;;;;;;;21.20;13.77;;;;;;;11.33;100.00;94992.78;5053465;28;21010;-79
2023/05/04 02:09:54;;;;;;;16.00;12.17;;;;;;;11.36;100.00;94994.31;5053839;28;20468;-80
2023/05/04 02:12:22;;;;;;;17.20;12.50;;;;;;;11.12;100.00;95003.34;5053963;28;20461;-80
2023/05/04 02:14:49;;;;;;;18.30;12.50;;;;;;;11.03;100.00;95004.13;5053811;28;20504;-80
2023/05/04 02:17:15;;;;;;;14.70;12.60;;;;;;;11.04;100.00;95000.53;5054298;28;20481;-80
2023/05/04 02:19:42;;;;;;;16.10;12.77;;;;;;;11.10;100.00;95007.06;5053789;28;20448;-80
2023/05/04 02:22:09;;;;;;;16.43;11.70;;;;;;;11.01;100.00;95016.56;5053815;28;20460;-81
2023/05/04 02:24:36;;;;;;;17.50;12.60;;;;;;;10.95;100.00;95016.22;5053669;28;20464;-81
2023/05/04 02:27:02;;;;;;;17.50;11.30;;;;;;;10.83;100.00;95013.66;5053588;28;20453;-81
2023/05/04 02:29:31;;;;;;;20.37;12.70;;;;;;;10.99;100.00;95012.41;5053667;28;20974;-80
2023/05/04 02:31:57;;;;;;;18.63;11.90;;;;;;;10.87;100.00;95014.25;5052865;28;20445;-82
2023/05/04 02:34:24;;;;;;;13.80;11.20;;;;;;;10.97;100.00;95015.13;5052751;28;20503;-80
2023/05/04 02:36:51;;;;;;;12.80;11.40;;;;;;;11.06;100.00;95017.00;5052397;28;20536;-81
2023/05/04 02:39:18;;;;;;;19.07;11.87;;;;;;;11.06;100.00;95017.00;5052850;28;20453;-80
2023/05/04 02:41:44;;;;;;;20.43;13.30;;;;;;;11.15;100.00;95021.44;5053711;28;20449;-80
2023/05/04 02:44:11;;;;;;;14.87;10.70;;;;;;;11.12;100.00;95008.59;5053841;28;20511;-80
2023/05/04 02:46:39;;;;;;;16.70;12.07;;;;;;;11.13;100.00;95017.28;5053415;28;21012;-80
2023/05/04 02:49:06;;;;;;;17.73;12.20;;;;;;;11.22;100.00;95019.13;5053676;28;20454;-80
2023/05/04 02:51:33;;;;;;;16.10;12.00;;;;;;;11.38;100.00;95011.63;5053347;28;20511;-80
2023/05/04 02:54:00;;;;;;;27.80;12.47;;;;;;;11.44;100.00;95015.50;5065400;28;20919;-80
2023/05/04 02:56:27;;;;;;;16.10;11.20;;;;;;;11.35;100.00;95011.88;5073538;28;20494;-80
2023/05/04 02:58:53;;;;;;;17.33;11.57;;;;;;;11.35;100.00;95013.69;5073180;28;20490;-81
2023/05/04 03:01:20;;;;;;;13.37;11.93;;;;;;;11.37;100.00;95015.22;5073615;28;20437;-80
2023/05/04 03:03:48;;;;;;;13.20;11.00;;;;;;;11.16;100.00;95020.50;5073681;28;20447;-84
2023/05/04 03:06:15;;;;;;;12.40;9.13;;;;;;;11.01;100.00;95021.81;5072590;28;20494;-80
2023/05/04 03:08:42;;;;;;;11.27;10.00;;;;;;;10.88;100.00;95026.41;5072119;28;20939;-81
2023/05/04 03:11:08;;;;;;;11.27;8.53;;;;;;;10.71;100.00;95029.63;5071819;28;20444;-81
2023/05/04 03:13:35;;;;;;;16.73;11.00;;;;;;;10.54;100.00;95031.00;5072215;28;20448;-81
2023/05/04 03:16:02;;;;;;;15.10;10.70;;;;;;;10.54;100.00;95026.59;5072062;28;20505;-82
2023/05/04 03:18:29;;;;;;;12.43;9.70;;;;;;;10.44;100.00;95030.94;5072310;28;20490;-82
2023/05/04 03:20:57;;;;;;;12.47;10.10;;;;;;;10.45;100.00;95021.28;5069680;28;20440;-83
2023/05/04 03:23:24;;;;;;;11.10;10.00;;;;;;;10.38;100.00;95022.72;5071821;28;20447;-80
2023/05/04 03:25:51;;;;;;;16.50;10.07;;;;;;;10.37;100.00;95021.88;5074523;28;20438;-81
2023/05/04 03:28:17;;;;;;;14.20;9.80;;;;;;;10.18;100.00;95021.72;5074426;28;21020;-80
2023/05/04 03:30:44;;;;;;;11.47;10.20;;;;;;;10.19;100.00;95026.00;5074605;28;20863;-80
2023/05/04 03:33:11;;;;;;;13.77;8.80;;;;;;;10.12;100.00;95030.03;5075688;28;20846;-80
2023/05/04 03:35:38;;;;;;;11.10;10.00;;;;;;;10.04;100.00;95027.22;5075962;28;20795;-80
2023/05/04 03:38:06;;;;;;;12.53;10.73;;;;;;;10.09;100.00;95032.91;5075768;28;20479;-80
2023/05/04 03:40:33;;;;;;;11.73;9.73;;;;;;;10.06;100.00;95030.53;5075628;28;20931;-80
2023/05/04 03:43:00;;;;;;;10.97;9.63;;;;;;;10.16;100.00;95041.97;5056745;28;20452;-80
2023/05/04 03:45:27;;;;;;;13.87;10.40;;;;;;;10.06;100.00;95043.66;5039874;28;20474;-80
2023/05/04 03:47:54;;;;;;;15.77;10.90;;;;;;;10.14;100.00;95051.75;5075532;28;20451;-80
2023/05/04 03:50:21;;;;;;;16.90;12.07;;;;;;;10.01;100.00;95043.19;5075144;28;20522;-80
2023/05/04 03:52:48;;;;;;;16.43;11.60;;;;;;;10.09;100.00;95043.41;5075684;28;20448;-80
2023/05/04 03:55:17;;;;;;;13.60;11.13;;;;;;;10.10;100.00;95051.16;5075447;28;20966;-80
2023/05/04 03:57:44;;;;;;;15.67;11.80;;;;;;;10.24;100.00;95053.53;5075168;28;20488;-80
2023/05/04 04:00:12;;;;;;;13.80;11.00;;;;;;;10.35;100.00;95054.44;5075434;28;20863;-80
2023/05/04 04:02:39;;;;;;;15.00;11.17;;;;;;;10.56;100.00;95057.94;5039775;28;20440;-79
2023/05/04 04:05:06;;;;;;;12.53;10.23;;;;;;;10.64;100.00;95055.50;5075579;28;20505;-80
2023/05/04 04:07:40;;;;;;;15.70;9.70;;;;;;;10.77;100.00;95065.84;5075323;28;20452;-80
2023/05/04 04:10:08;;;;;;;16.53;11.93;;;;;;;10.69;100.00;95066.47;5041421;28;20440;-80
2023/05/04 04:12:36;;;;;;;11.30;9.00;;;;;;;10.76;100.00;95072.06;5075222;28;20440;-80
2023/05/04 04:15:04;;;;;;;13.50;10.13;;;;;;;10.62;100.00;95067.94;5075299;28;20523;-80
2023/05/04 04:17:30;;;;;;;10.93;9.10;;;;;;;10.77;100.00;95064.06;5039480;28;20480;-81
2023/05/04 04:19:57;;;;;;;11.47;10.23;;;;;;;10.69;100.00;95068.25;5075109;28;20518;-80
2023/05/04 04:22:25;;;;;;;16.30;9.17;;;;;;;10.72;100.00;95062.78;5056381;28;20447;-80
2023/05/04 04:24:51;;;;;;;13.90;9.50;;;;;;;10.81;100.00;95067.25;5074892;28;20440;-80
2023/05/04 04:27:18;;;;;;;10.57;8.97;;;;;;;10.76;100.00;95069.44;5070611;28;20459;-80
2023/05/04 04:29:46;;;;;;;14.43;9.37;;;;;;;10.83;100.00;95074.03;5074652;28;20514;-80
2023/05/04 04:32:13;;;;;;;13.43;9.57;;;;;;;10.75;100.00;95073.03;5074943;28;20523;-80
2023/05/04 04:34:40;;;;;;;13.00;9.50;;;;;;;10.90;100.00;95073.53;5074557;28;20931;-80
2023/05/04 04:37:06;;;;;;;11.57;9.43;;;;;;;10.80;100.00;95076.09;5074489;28;20552;-81
2023/05/04 04:39:33;;;;;;;12.07;8.20;;;;;;;10.76;100.00;95082.56;5074729;28;20988;-81
2023/05/04 04:42:00;;;;;;;14.88;10.23;;;;;;;10.89;100.00;95077.13;5074443;28;20496;-81
2023/05/04 04:44:27;;;;;;;10.37;8.47;;;;;;;10.88;100.00;95078.91;5075683;28;20198;-80
2023/05/04 04:46:56;;;;;;;13.97;9.37;;;;;;;11.01;100.00;95084.00;5076470;28;20480;-79
2023/05/04 04:49:23;;;;;;;11.47;8.03;;;;;;;10.98;100.00;95084.22;5075973;28;20454;-79
2023/05/04 04:51:50;;;;;;;9.90;8.27;;;;;;;11.05;100.00;95080.97;5074467;28;20457;-79
2023/05/04 04:54:17;;;;;;;10.70;8.90;;;;;;;11.22;100.00;95083.97;5074777;28;20893;-79
2023/05/04 04:56:45;;;;;;;8.50;7.50;;;;;;;11.35;100.00;95081.97;5074257;28;20510;-79
2023/05/04 04:59:12;;;;;;;11.63;8.33;;;;;;;11.55;100.00;95085.53;5073976;28;20484;-82
2023/05/04 05:01:40;;;;;;;11.83;8.93;;;;;;;11.55;100.00;95091.63;5074983;28;20444;-81
2023/05/04 05:04:09;;;;;;;13.97;8.20;;;;;;;11.30;100.00;95094.69;5075828;28;20453;-82
2023/05/04 05:06:36;;;;;;;11.57;7.90;;;;;;;11.24;100.00;95100.44;5075795;28;20444;-82
2023/05/04 05:09:03;;;;;;;9.80;8.47;;;;;;;11.28;100.00;95096.59;5075593;28;21045;-82
2023/05/04 05:11:30;;;;;;;9.17;7.77;;;;;;;11.38;100.00;95102.75;5073400;28;20437;-82
2023/05/04 05:13:58;;;;;;;11.87;9.60;;;;;;;11.46;100.00;95098.50;5070501;28;20537;-79
2023/05/04 05:16:25;;;;;;;10.33;8.20;;;;;;;11.21;100.00;95105.94;5072231;28;20507;-79
2023/05/04 05:18:52;;;;;;;12.93;8.30;;;;;;;11.22;100.00;95108.44;5063859;28;20819;-79
2023/05/04 05:21:20;;;;;;;11.93;8.60;;;;;;;11.22;100.00;95107.59;5055373;28;20855;-80
2023/05/04 05:23:47;;;;;;;10.93;8.30;;;;;;;11.29;100.00;95098.28;5055218;28;20421;-80
2023/05/04 05:26:14;;;;;;;12.73;9.27;;;;;;;11.09;100.00;95108.66;5055222;28;20503;-80
2023/05/04 05:28:41;;;;;;;16.23;10.00;;;;;;;11.16;100.00;95098.44;5055398;28;20465;-80
2023/05/04 05:31:08;;;;;;;10.97;8.80;;;;;;;11.18;100.00;95101.78;5058224;28;20477;-80
2023/05/04 05:33:35;;;;;;;13.13;9.23;;;;;;;11.08;100.00;95104.34;5056746;28;20473;-80
2023/05/04 05:36:02;;;;;;;10.87;9.77;;;;;;;10.92;100.00;95109.19;5075054;28;20848;-80
2023/05/04 05:38:30;;;;;;;18.50;9.83;;;;;;;10.89;100.00;95109.44;5064719;28;20897;-80
2023/05/04 05:40:57;;;;;;;14.53;9.00;;;;;;;10.85;100.00;95108.03;5073255;28;20452;-80
2023/05/04 05:43:23;;;;;;;19.13;11.10;;;;;;;10.86;100.00;95120.22;5072957;28;20859;-79
2023/05/04 05:45:50;;;;;;;17.77;12.57;;;;;;;10.76;100.00;95114.06;5073469;28;20522;-83
2023/05/04 05:48:17;;;;;;;17.70;11.20;;;;;;;10.77;100.00;95113.94;5072377;28;20451;-80
2023/05/04 05:50:44;;;;;;;17.53;10.47;;;;;;;10.85;100.00;95115.91;5073236;28;20453;-80
2023/05/04 05:53:11;;;;;;;12.93;10.37;;;;;;;10.73;100.00;95116.94;5073487;28;20514;-78
2023/05/04 05:55:39;;;;;;;10.90;9.87;;;;;;;10.88;100.00;95122.72;5074240;28;20444;-80
2023/05/04 05:58:05;;;;;;;13.43;9.87;;;;;;;10.90;100.00;95120.78;5072927;28;20986;-80
2023/05/04 06:00:32;;;;;;;15.23;9.50;;;;;;;10.89;100.00;95129.63;5073286;28;20444;-79
2023/05/04 06:02:59;;;;;;;15.27;8.80;;;;;;;10.83;100.00;95123.09;5072890;28;20441;-79
2023/05/04 06:05:26;;;;;;;8.27;7.47;;;;;;;10.86;100.00;95123.66;5072718;28;20445;-82
2023/05/04 06:07:53;;;;;;;12.10;8.47;;;;;;;10.76;100.00;95127.19;5072666;28;20441;-82
2023/05/04 06:10:19;;;;;;;13.13;11.07;;;;;;;10.88;100.00;95125.34;5037157;28;20440;-80
2023/05/04 06:12:47;;;;;;;10.23;7.00;;;;;;;10.88;100.00;95123.53;5072869;28;20445;-80
2023/05/04 06:15:14;;;;;;;13.40;9.93;;;;;;;10.91;100.00;95118.03;5072673;28;20798;-80
2023/05/04 06:17:41;;;;;;;10.70;7.93;;;;;;;10.82;100.00;95138.00;5072759;28;20784;-81
2023/05/04 06:20:09;;;;;;;7.60;6.80;;;;;;;10.68;100.00;95119.91;5072737;28;20539;-81
2023/05/04 06:22:36;;;;;;;11.30;8.50;;;;;;;10.69;100.00;95126.81;5072771;28;20502;-81
2023/05/04 06:25:03;;;;;;;13.87;8.13;;;;;;;10.64;100.00;95125.53;5070325;28;20448;-81
2023/05/04 06:27:31;;;;;;;9.33;7.40;;;;;;;10.61;100.00;95120.53;5070195;28;20448;-81
2023/05/04 06:29:59;;;;;;;7.40;6.70;;;;;;;10.55;100.00;95124.50;5072390;28;20540;-81
2023/05/04 06:32:26;;;;;;;6.80;5.60;;;;;;;10.58;100.00;95118.16;5072396;28;20905;-81
2023/05/04 06:34:54;;;;;;;10.33;6.87;;;;;;;10.43;100.00;95128.97;5070149;28;20931;-81
2023/05/04 06:37:21;;;;;;;10.73;6.90;;;;;;;10.45;100.00;95124.41;5072098;28;20484;-81
2023/05/04 06:39:48;;;;;;;17.57;7.80;;;;;;;10.53;100.00;95122.00;5071916;28;20479;-81
2023/05/04 06:42:14;;;;;;;9.60;6.90;;;;;;;10.60;100.00;95126.75;5072377;28;20861;-82
2023/05/04 06:44:41;;;;;;;7.47;6.10;;;;;;;10.59;100.00;95130.34;5071874;28;20445;-81
2023/05/04 06:47:09;;;;;;;9.40;7.37;;;;;;;10.61;100.00;95131.88;5072177;28;20931;-81
2023/05/04 06:49:36;;;;;;;8.63;6.80;;;;;;;10.67;100.00;95138.41;5072033;28;20449;-81
2023/05/04 06:52:03;;;;;;;7.20;6.23;;;;;;;10.73;100.00;95137.94;5072038;28;20942;-81
2023/05/04 06:54:30;;;;;;;13.60;6.73;;;;;;;10.79;100.00;95140.06;5036674;28;20502;-81
2023/05/04 06:56:57;;;;;;;6.73;6.03;;;;;;;10.65;100.00;95135.91;5072212;28;20441;-81
2023/05/04 06:59:24;;;;;;;8.90;6.90;;;;;;;10.84;100.00;95136.09;5071729;28;20529;-81
2023/05/04 07:01:50;;;;;;;8.30;6.10;;;;;;;10.76;100.00;95129.81;5072299;28;20486;-81
2023/05/04 07:04:22;;;;;;;7.70;6.00;;;;;;;10.84;100.00;95135.25;5071999;28;20445;-81
2023/05/04 07:06:49;;;;;;;7.07;6.03;;;;;;;10.80;100.00;95144.34;5072258;28;20787;-81
2023/05/04 07:09:16;;;;;;;8.60;6.80;;;;;;;10.87;100.00;95145.50;5072105;28;20448;-81
2023/05/04 07:11:43;;;;;;;8.13;5.40;;;;;;;10.66;100.00;95142.00;5071838;28;20547;-81
2023/05/04 07:14:10;;;;;;;7.57;6.40;;;;;;;10.78;100.00;95143.63;5071873;28;20447;-81
2023/05/04 07:16:37;;;;;;;8.83;6.03;;;;;;;10.75;100.00;95136.03;5071652;28;20467;-81
2023/05/04 07:19:04;;;;;;;8.27;7.40;;;;;;;10.77;100.00;95136.72;5071890;28;20484;-81
2023/05/04 07:21:32;;;;;;;10.07;9.07;;;;;;;10.75;100.00;95142.09;5071733;28;20449;-81
2023/05/04 07:23:59;;;;;;;7.43;5.80;;;;;;;10.67;100.00;95147.13;5071511;28;20445;-81
2023/05/04 07:26:26;;;;;;;7.50;6.70;;;;;;;10.69;100.00;95147.00;5071592;28;20440;-81
2023/05/04 07:28:53;;;;;;;11.03;7.90;;;;;;;10.72;100.00;95150.22;5071412;28;20927;-81
2023/05/04 07:31:20;;;;;;;10.40;8.33;;;;;;;10.75;100.00;95152.59;5071875;28;20919;-82
2023/05/04 07:33:47;;;;;;;6.70;6.10;;;;;;;10.60;100.00;95145.13;5071665;28;20444;-81
2023/05/04 07:36:14;;;;;;;7.23;6.30;;;;;;;10.51;100.00;95144.91;5071753;28;20444;-81
2023/05/04 07:38:43;;;;;;;8.90;7.97;;;;;;;10.64;100.00;95150.00;5071447;28;20986;-81
2023/05/04 07:41:09;;;;;;;10.53;7.83;;;;;;;10.76;100.00;95150.81;5069296;28;20460;-81
2023/05/04 07:43:36;;;;;;;10.50;9.40;;;;;;;10.71;100.00;95151.19;5071417;28;20455;-81
2023/05/04 07:46:03;;;;;;;8.30;7.30;;;;;;;10.72;100.00;95147.59;5071519;28;20465;-81
2023/05/04 07:48:30;;;;;;;10.17;8.07;;;;;;;10.74;100.00;95145.69;5071227;28;21018;-81
2023/05/04 07:50:57;;;;;;;8.07;7.27;;;;;;;10.65;100.00;95145.56;5071351;28;20445;-81
2023/05/04 07:53:25;;;;;;;10.43;7.77;;;;;;;10.75;100.00;95154.38;5071328;28;20447;-81
2023/05/04 07:55:56;;;;;;;9.30;8.30;;;;;;;10.67;100.00;95154.16;5071523;28;20675;-81
2023/05/04 07:58:23;;;;;;;6.73;6.13;;;;;;;10.71;100.00;95160.84;5071137;28;20476;-81
2023/05/04 08:00:49;;;;;;;11.43;7.70;;;;;;;10.66;100.00;95158.56;5071374;28;20714;-81
2023/05/04 08:03:16;;;;;;;11.40;8.67;;;;;;;10.69;100.00;95150.44;5071274;28;20452;-81
2023/05/04 08:05:43;;;;;;;9.40;8.50;;;;;;;10.72;100.00;95158.09;5071181;28;20972;-81
2023/05/04 08:08:10;;;;;;;10.63;7.90;;;;;;;10.74;100.00;95160.59;5071724;28;20472;-81
2023/05/04 08:10:37;;;;;;;13.03;8.17;;;;;;;10.80;100.00;95160.09;5071935;28;20440;-81
2023/05/04 08:13:05;;;;;;;10.80;8.33;;;;;;;10.96;100.00;95167.53;5074823;28;20931;-81
2023/05/04 08:15:32;;;;;;;11.60;8.23;;;;;;;10.93;100.00;95171.25;5074899;28;20985;-81
2023/05/04 08:17:59;;;;;;;9.70;8.40;;;;;;;11.05;100.00;95167.63;5074876;28;20857;-81
2023/05/04 08:20:25;;;;;;;8.83;7.90;;;;;;;10.99;100.00;95173.41;5039178;28;20933;-81
2023/05/04 08:22:52;;;;;;;12.50;7.73;;;;;;;11.15;100.00;95168.53;5074689;28;20456;-81
2023/05/04 08:25:20;;;;;;;8.30;6.30;;;;;;;11.16;100.00;95169.38;5074539;28;20487;-81
2023/05/04 08:27:47;;;;;;;10.30;7.30;;;;;;;11.30;100.00;95171.69;5074730;28;20802;-80
2023/05/04 08:30:16;;;;;;;10.57;8.23;;;;;;;11.34;100.00;95172.28;5074568;28;20448;-81
2023/05/04 08:32:42;;;;;;;11.17;8.10;;;;;;;11.53;100.00;95171.56;5072390;28;20459;-82
2023/05/04 08:35:09;;;;;;;11.90;7.60;;;;;;;11.69;100.00;95164.88;5074560;28;20960;-81
2023/05/04 08:37:36;;;;;;;14.73;8.07;;;;;;;11.86;100.00;95170.56;5074787;28;20444;-81
2023/05/04 08:40:04;;;;;;;11.40;8.83;;;;;;;11.97;100.00;95157.31;5039081;28;20481;-81
2023/05/04 08:42:33;;;;;;;12.30;9.10;;;;;;;12.17;100.00;95163.47;5074651;28;20851;-81
2023/05/04 08:45:00;;;;;;;9.43;8.40;;;;;;;12.44;100.00;95160.25;5074362;28;20468;-81
2023/05/04 08:47:29;;;;;;;11.40;7.30;;;;;;;12.60;100.00;95157.91;5074458;28;20808;-81
2023/05/04 08:49:56;;;;;;;9.10;6.83;;;;;;;12.56;100.00;95157.34;5074388;28;20449;-81
2023/05/04 08:52:24;;;;;;;8.80;7.13;;;;;;;12.82;100.00;95154.22;5074490;28;20461;-81
2023/05/04 08:54:54;;;;;;;7.87;6.90;;;;;;;12.94;100.00;95158.38;5074477;28;20466;-81
2023/05/04 08:57:23;;;;;;;8.60;7.07;;;;;;;12.95;100.00;95155.59;5074297;28;20539;-81
2023/05/04 08:59:51;;;;;;;9.03;6.97;;;;;;;12.74;99.27;95154.06;5074052;28;20493;-81
2023/05/04 09:02:20;;;;;;;7.73;6.60;;;;;;;12.51;100.00;95150.84;5073946;28;20534;-81
2023/05/04 09:04:49;;;;;;;8.60;7.40;;;;;;;12.36;100.00;95160.91;5074290;28;20445;-81
2023/05/04 09:07:16;;;;;;;8.70;7.90;;;;;;;12.34;100.00;95161.03;5074131;28;20855;-81
2023/05/04 09:09:43;;;;;;;11.70;7.10;;;;;;;12.44;100.00;95155.81;5073953;28;20793;-81
2023/05/04 09:12:10;;;;;;;11.17;8.80;;;;;;;12.51;100.00;95161.38;5074010;28;20855;-81
2023/05/04 09:14:37;;;;;;;10.00;7.60;;;;;;;12.57;100.00;95155.56;5073775;28;20443;-81
2023/05/04 09:17:13;;;;;;;11.27;9.00;;;;;;;12.60;100.00;95160.53;5073802;28;20932;-81
2023/05/04 09:19:42;;;;;;;10.37;8.20;;;;;;;12.49;100.00;95165.94;5073538;28;20546;-81
2023/05/04 09:22:16;;;;;;;13.10;8.50;;;;;;;12.25;100.00;95164.47;5072810;28;20478;-81
2023/05/04 09:24:44;;;;;;;9.00;7.57;;;;;;;12.40;100.00;95163.13;5073486;28;20991;-81
2023/05/04 09:27:11;;;;;;;10.23;7.97;;;;;;;12.48;100.00;95159.84;5073504;28;20969;-81
2023/05/04 09:29:39;;;;;;;17.07;9.47;;;;;;;12.54;100.00;95155.81;5073873;28;20433;-82
2023/05/04 09:32:11;;;;;;;14.53;10.53;;;;;;;12.56;100.00;95159.97;5071387;28;20456;-81
2023/05/04 09:34:46;;;;;;;14.90;10.50;;;;;;;12.59;100.00;95158.88;5073388;28;20498;-81
2023/05/04 09:37:13;;;;;;;12.93;10.53;;;;;;;12.66;100.00;95154.72;5073450;28;20448;-81
2023/05/04 09:39:54;;;;;;;12.03;8.90;;;;;;;12.63;100.00;95155.00;5073272;28;21024;-81
2023/05/04 09:42:22;;;;;;;15.80;10.83;;;;;;;12.80;100.00;95154.34;5073103;28;20943;-81
2023/05/04 09:45:01;;;;;;;14.47;11.37;;;;;;;12.92;100.00;95150.59;5073025;28;20445;-81
2023/05/04 09:47:33;;;;;;;15.17;10.00;;;;;;;12.85;100.00;95153.94;5073264;28;20448;-81
2023/05/04 09:50:11;;;;;;;10.60;9.23;;;;;;;12.87;100.00;95150.19;5037798;28;20928;-81
2023/05/04 09:52:40;;;;;;;10.03;9.00;;;;;;;12.89;100.00;95148.25;5072728;28;20487;-81
2023/05/04 09:55:11;;;;;;;13.33;10.07;;;;;;;12.91;100.00;95148.09;5071025;28;20450;-81
2023/05/04 09:57:40;;;;;;;12.43;10.03;;;;;;;13.16;100.00;95152.00;5072971;28;20530;-81
2023/05/04 10:00:11;;;;;;;16.63;10.93;;;;;;;13.41;100.00;95143.53;5073009;28;20485;-81
2023/05/04 10:02:38;;;;;;;13.80;9.70;;;;;;;13.51;100.00;95149.63;5054079;28;20462;-81
2023/05/04 10:05:06;;;;;;;16.87;10.67;;;;;;;13.58;100.00;95142.81;5073250;28;20456;-81
2023/05/04 10:07:33;;;;;;;12.23;10.03;;;;;;;13.69;98.89;95144.47;5072941;28;20451;-81
2023/05/04 10:10:00;;;;;;;13.63;10.43;;;;;;;13.76;99.60;95135.00;5072980;28;20433;-81
2023/05/04 10:12:28;;;;;;;11.77;10.57;;;;;;;13.89;98.93;95129.41;5072675;28;20455;-81
2023/05/04 10:14:55;;;;;;;15.10;11.03;;;;;;;14.00;98.79;95133.69;5072377;28;20465;-81
2023/05/04 10:17:33;;;;;;;14.97;10.23;;;;;;;14.03;97.72;95128.09;5072437;28;20454;-81
2023/05/04 10:20:11;;;;;;;13.87;9.97;;;;;;;14.17;97.30;95128.47;5072242;28;20484;-81
2023/05/04 10:22:52;;;;;;;15.43;11.00;;;;;;;14.25;96.52;95123.28;5072685;28;20443;-81
2023/05/04 10:26:05;;;;;;;19.80;13.03;;;;;;;14.40;96.47;95128.06;5072277;28;20509;-81
2023/05/04 10:28:43;;;;;;;17.40;10.77;;;;;;;14.34;95.56;95120.72;5010269;28;20583;-81
2023/05/04 10:31:10;;;;;;;11.70;9.77;;;;;;;14.42;95.87;95115.53;5010109;28;20459;-82
2023/05/04 10:33:40;;;;;;;13.87;9.90;;;;;;;14.38;94.45;95124.75;4960859;28;20432;-80
2023/05/04 10:36:07;;;;;;;16.47;11.23;;;;;;;14.51;95.18;95125.25;5010235;28;20497;-81
2023/05/04 10:38:35;;;;;;;14.97;11.23;;;;;;;14.53;94.67;95128.59;5010186;28;20786;-82
2023/05/04 10:41:13;;;;;;;16.40;10.47;;;;;;;14.18;94.68;95118.75;4961234;28;21062;-81
2023/05/04 10:43:41;;;;;;;15.03;10.07;;;;;;;14.27;96.56;95131.06;5009981;28;20447;-81
2023/05/04 10:46:16;;;;;;;15.17;11.10;;;;;;;13.92;94.90;95122.03;4977041;28;20484;-81
2023/05/04 10:48:43;;;;;;;14.67;10.43;;;;;;;13.80;96.24;95125.00;5009976;28;20445;-82
2023/05/04 10:51:18;;;;;;;20.30;12.20;;;;;;;13.84;96.88;95116.63;4977067;28;20463;-81
2023/05/04 10:53:45;;;;;;;16.97;12.20;;;;;;;13.81;97.51;95118.75;5009819;28;20539;-81
2023/05/04 10:56:20;;;;;;;20.20;12.60;;;;;;;13.80;99.66;95125.00;4961467;28;20517;-81
2023/05/04 10:58:49;;;;;;;15.37;10.40;;;;;;;13.57;96.52;95130.59;5009722;28;20868;-81
2023/05/04 11:01:16;;;;;;;13.13;11.73;;;;;;;13.47;97.75;95129.78;5009802;28;20740;-81
2023/05/04 11:03:43;;;;;;;16.70;12.40;;;;;;;13.44;98.83;95116.91;5066007;28;20496;-81
2023/05/04 11:06:17;;;;;;;16.10;11.87;;;;;;;13.41;99.52;95129.53;5071642;28;20503;-81
2023/05/04 11:08:48;;;;;;;19.90;13.37;;;;;;;13.39;99.25;95116.50;5071998;28;20544;-82
2023/05/04 11:11:15;;;;;;;18.17;12.53;;;;;;;13.43;98.63;95136.31;5071574;28;20442;-82
2023/05/04 11:13:45;;;;;;;23.27;11.73;;;;;;;13.49;98.12;95127.84;5052585;28;20435;-81
2023/05/04 11:16:14;;;;;;;19.37;13.00;;;;;;;13.40;98.16;95128.69;5071706;28;20437;-81
2023/05/04 11:18:41;;;;;;;17.27;12.10;;;;;;;13.41;99.15;95135.63;5072716;28;20499;-81